Time;durP1;ratioP1;P1;durP2;ratioP2;P2;SDS_P1;SDS_P2;PMS_P1;PMS_P2;Temp;Humidity;BMP_temperature;BMP_pressure;BME280_temperature;BME280_humidity;BME280_pressure;Samples;Min_cycle;Max_cycle;Signal;HPM_P1;HPM_P2
2021/01/19 00:01:38;;;;;;;60.88;30.08;;;;;;;1.13;74.60;100320.87;2112480;83;28911;-67
2021/01/19 00:04:41;;;;;;;56.92;30.70;;;;;;;1.16;74.65;100320.84;2083643;84;31166;-65
2021/01/19 00:07:43;;;;;;;60.43;31.33;;;;;;;1.19;74.66;100320.78;2107123;84;33945;-66
2021/01/19 00:10:46;;;;;;;58.90;28.95;;;;;;;1.23;74.75;100322.97;2079661;84;29613;-66
2021/01/19 00:13:48;;;;;;;57.80;27.48;;;;;;;1.26;74.67;100318.95;2079164;85;27674;-66
2021/01/19 00:16:50;;;;;;;52.13;26.15;;;;;;;1.31;74.72;100314.50;2079128;85;28861;-66
2021/01/19 00:19:53;;;;;;;52.78;27.30;;;;;;;1.36;74.70;100315.34;2078462;85;32282;-66
2021/01/19 00:22:55;;;;;;;54.90;27.58;;;;;;;1.40;74.75;100310.88;2115524;84;34485;-66
2021/01/19 00:25:58;;;;;;;53.92;26.68;;;;;;;1.44;74.78;100301.58;2113812;84;29176;-66
2021/01/19 00:29:00;;;;;;;48.33;25.48;;;;;;;1.47;74.81;100302.88;2098229;83;27691;-66
2021/01/19 00:32:02;;;;;;;48.85;26.40;;;;;;;1.51;74.85;100299.31;2100470;84;28676;-65
2021/01/19 00:35:06;;;;;;;49.40;25.65;;;;;;;1.55;74.82;100301.92;2082062;85;32138;-66
2021/01/19 00:38:09;;;;;;;46.37;23.95;;;;;;;1.57;74.78;100296.17;2083139;84;33106;-65
2021/01/19 00:41:11;;;;;;;41.98;23.05;;;;;;;1.57;74.82;100293.08;2097672;84;30111;-66
2021/01/19 00:44:13;;;;;;;46.42;23.02;;;;;;;1.61;74.92;100295.22;2082784;85;27614;-65
2021/01/19 00:47:15;;;;;;;40.52;21.23;;;;;;;1.58;74.84;100286.01;2081132;85;29011;-64
2021/01/19 00:50:17;;;;;;;45.67;21.82;;;;;;;1.62;74.93;100290.37;2077592;84;31077;-66
2021/01/19 00:53:20;;;;;;;40.30;21.95;;;;;;;1.65;74.91;100289.02;2112665;84;33125;-66
2021/01/19 00:56:22;;;;;;;41.50;22.27;;;;;;;1.69;75.00;100292.05;2076766;84;29176;-65
2021/01/19 00:59:24;;;;;;;40.58;21.27;;;;;;;1.72;74.98;100290.70;2092350;84;27606;-65
2021/01/19 01:02:27;;;;;;;40.55;20.80;;;;;;;1.76;74.98;100288.41;2096091;84;28890;-65
2021/01/19 01:05:29;;;;;;;39.05;21.17;;;;;;;1.79;74.94;100292.34;2111548;84;31169;-65
2021/01/19 01:08:31;;;;;;;35.43;19.23;;;;;;;1.79;74.95;100295.44;2077739;84;33546;-65
2021/01/19 01:11:42;;;;;;;40.55;20.65;;;;;;;1.81;74.96;100290.55;2041242;85;29159;-66
2021/01/19 01:14:45;;;;;;;39.18;19.73;;;;;;;1.84;74.95;100294.05;2079236;85;27602;-65
2021/01/19 01:17:47;;;;;;;35.03;18.85;;;;;;;1.85;74.91;100290.52;2076940;84;29123;-64
2021/01/19 01:20:49;;;;;;;38.10;19.57;;;;;;;1.84;74.86;100288.31;2105813;84;31192;-65
2021/01/19 01:23:51;;;;;;;32.85;18.02;;;;;;;1.87;74.90;100284.77;2106507;84;33114;-64
2021/01/19 01:26:54;;;;;;;32.05;17.20;;;;;;;1.87;74.94;100279.02;2085352;84;29175;-67
2021/01/19 01:29:56;;;;;;;30.43;18.25;;;;;;;1.92;74.96;100277.20;2106800;84;27761;-65
2021/01/19 01:32:58;;;;;;;30.25;17.57;;;;;;;1.96;74.94;100272.73;2050173;85;28842;-65
2021/01/19 01:36:00;;;;;;;34.13;17.17;;;;;;;1.98;74.95;100268.31;2078933;85;31172;-65
2021/01/19 01:39:03;;;;;;;29.23;17.20;;;;;;;2.01;74.97;100257.70;2050735;85;33112;-65
2021/01/19 01:42:19;;;;;;;28.40;17.15;;;;;;;2.04;74.96;100266.91;2076490;85;29266;-64
2021/01/19 01:45:22;;;;;;;28.50;16.15;;;;;;;2.06;74.97;100264.23;2076068;85;27632;-65
2021/01/19 01:48:24;;;;;;;;;;;;;;;2.07;74.90;100260.23;2078676;84;29011;-65
2021/01/19 01:51:27;;;;;;;25.97;15.58;;;;;;;2.05;74.89;100258.09;2049430;86;31166;-65
2021/01/19 01:54:30;;;;;;;24.47;14.85;;;;;;;2.01;74.90;100251.52;2069067;86;33130;-65
2021/01/19 01:57:33;;;;;;;29.10;15.05;;;;;;;2.01;74.93;100252.41;2074368;84;30107;-65
2021/01/19 02:00:35;;;;;;;27.93;16.00;;;;;;;2.00;74.95;100251.09;2106776;84;27690;-65
2021/01/19 02:03:37;;;;;;;23.67;13.70;;;;;;;1.99;74.97;100250.70;2104700;84;28682;-65
2021/01/19 02:06:39;;;;;;;23.52;13.90;;;;;;;2.01;74.99;100247.56;2096370;84;31162;-66
2021/01/19 02:09:42;;;;;;;27.02;14.35;;;;;;;2.03;75.05;100242.70;2105309;84;34055;-64
2021/01/19 02:12:53;;;;;;;21.52;12.58;;;;;;;2.07;75.09;100237.77;2105227;84;29589;-65
2021/01/19 02:16:24;;;;;;;24.40;14.25;;;;;;;2.12;75.15;100245.19;2104723;84;27679;-65
2021/01/19 02:20:02;;;;;;;35.03;16.07;;;;;;;2.16;75.13;100243.36;2082955;84;29803;-64
2021/01/19 02:23:24;;;;;;;27.52;16.65;;;;;;;2.17;75.03;100241.14;2103935;84;31146;-65
2021/01/19 02:27:01;;;;;;;34.73;17.80;;;;;;;2.16;75.03;100243.82;2093952;84;33132;-65
2021/01/19 02:30:10;;;;;;;30.20;17.10;;;;;;;2.15;75.03;100242.08;2054682;84;29171;-65
2021/01/19 02:33:29;;;;;;;30.40;16.37;;;;;;;2.13;75.04;100239.47;2072059;84;27778;-64
2021/01/19 02:36:51;;;;;;;27.50;15.30;;;;;;;2.12;75.10;100241.22;2070196;85;30028;-65
2021/01/19 02:40:08;;;;;;;25.80;15.10;;;;;;;2.13;75.13;100243.44;2067616;85;31180;-64
2021/01/19 02:43:25;;;;;;;29.67;15.53;;;;;;;2.10;75.15;100239.05;2070244;86;33286;-64
2021/01/19 02:46:25;;;;;;;;;;;;;;;2.09;75.12;100244.37;2091357;84;29165;-65
2021/01/19 02:49:27;;;;;;;31.20;16.57;;;;;;;2.10;75.09;100244.33;2092836;84;27670;-64
2021/01/19 02:52:30;;;;;;;35.55;17.52;;;;;;;2.11;75.17;100239.47;2118321;84;29771;-65
2021/01/19 02:55:33;;;;;;;30.97;18.05;;;;;;;2.12;75.22;100239.90;2116683;84;32135;-64
2021/01/19 02:58:57;;;;;;;34.78;18.45;;;;;;;2.15;75.16;100244.28;2106053;84;33128;-65
2021/01/19 03:02:08;;;;;;;36.60;17.92;;;;;;;2.18;75.27;100240.70;2115129;84;29177;-64
2021/01/19 03:05:12;;;;;;;34.73;17.65;;;;;;;2.18;75.19;100238.92;2118322;84;27605;-65
2021/01/19 03:08:15;;;;;;;28.55;16.17;;;;;;;2.20;75.19;100237.13;2092390;84;28844;-65
2021/01/19 03:11:19;;;;;;;30.35;16.27;;;;;;;2.17;75.06;100236.31;2076731;85;32139;-65
2021/01/19 03:14:21;;;;;;;29.95;15.85;;;;;;;2.14;75.13;100247.83;2099633;84;33118;-64
2021/01/19 03:17:24;;;;;;;26.73;15.60;;;;;;;2.15;75.20;100243.39;2121981;83;29264;-64
2021/01/19 03:20:27;;;;;;;24.25;14.35;;;;;;;2.15;75.21;100239.43;2082668;83;28144;-64
2021/01/19 03:23:29;;;;;;;22.55;13.53;;;;;;;2.13;75.23;100242.97;2080959;85;28852;-65
2021/01/19 03:26:31;;;;;;;17.87;10.85;;;;;;;2.15;75.21;100242.96;2094380;84;31215;-64
2021/01/19 03:29:34;;;;;;;12.33;9.25;;;;;;;2.16;75.25;100238.53;2097369;84;33163;-64
2021/01/19 03:32:36;;;;;;;14.23;8.95;;;;;;;2.18;75.43;100240.24;2101045;84;29197;-64
2021/01/19 03:35:39;;;;;;;14.73;9.48;;;;;;;2.21;75.47;100243.31;2118238;84;27674;-64
2021/01/19 03:38:41;;;;;;;13.13;8.28;;;;;;;2.24;75.51;100240.16;2105113;84;28833;-65
2021/01/19 03:41:43;;;;;;;11.65;7.17;;;;;;;2.25;75.54;100235.30;2109499;84;31379;-65
2021/01/19 03:44:45;;;;;;;11.70;7.58;;;;;;;2.25;75.59;100244.55;2117759;84;33128;-66
2021/01/19 03:47:47;;;;;;;11.88;8.50;;;;;;;2.25;75.62;100239.69;2096328;84;29163;-65
2021/01/19 03:50:49;;;;;;;13.00;7.83;;;;;;;2.24;75.69;100238.84;2067433;84;28145;-64
2021/01/19 03:53:53;;;;;;;11.18;6.72;;;;;;;2.23;75.77;100233.13;2067060;86;29859;-65
2021/01/19 03:56:55;;;;;;;10.45;6.53;;;;;;;2.22;75.79;100243.27;2074300;84;31313;-65
2021/01/19 03:59:57;;;;;;;12.98;6.97;;;;;;;2.21;75.79;100241.98;2096799;84;34244;-66
2021/01/19 04:02:59;;;;;;;11.22;6.08;;;;;;;2.23;75.85;100242.38;2073610;84;30119;-65
2021/01/19 04:06:01;;;;;;;11.12;6.78;;;;;;;2.25;75.94;100238.38;2066476;86;27782;-65
2021/01/19 04:09:03;;;;;;;9.68;6.80;;;;;;;2.28;75.97;100236.58;2073686;84;28942;-66
2021/01/19 04:12:05;;;;;;;10.55;7.12;;;;;;;2.31;75.99;100225.06;2065858;86;31355;-65
2021/01/19 04:15:09;;;;;;;11.08;7.67;;;;;;;2.30;75.91;100227.28;2066875;84;32902;-65
2021/01/19 04:18:11;;;;;;;12.35;7.62;;;;;;;2.30;75.96;100231.71;2092892;84;29182;-65
2021/01/19 04:21:14;;;;;;;13.75;7.78;;;;;;;2.30;76.09;100226.42;2111706;84;27718;-66
2021/01/19 04:24:16;;;;;;;14.55;8.78;;;;;;;2.28;76.06;100229.97;2109676;84;28901;-65
2021/01/19 04:27:21;;;;;;;15.13;7.92;;;;;;;2.25;76.14;100228.69;2089226;84;32305;-65
2021/01/19 04:30:24;;;;;;;14.00;7.28;;;;;;;2.22;76.18;100228.73;2101597;84;33397;-65
2021/01/19 04:33:26;;;;;;;12.23;6.90;;;;;;;2.20;76.25;100230.98;2071822;84;29172;-65
2021/01/19 04:36:28;;;;;;;9.58;6.05;;;;;;;2.19;76.25;100223.95;2070616;84;27690;-65
2021/01/19 04:39:30;;;;;;;9.35;6.83;;;;;;;2.21;76.27;100232.73;2100370;84;29776;-66
2021/01/19 04:42:35;;;;;;;11.60;7.37;;;;;;;2.21;76.30;100226.13;2090771;84;32095;-66
2021/01/19 04:45:39;;;;;;;10.25;6.92;;;;;;;2.26;76.32;100229.55;2030954;87;32918;-65
2021/01/19 04:48:43;;;;;;;10.00;6.40;;;;;;;2.27;76.34;100231.30;2067316;84;29415;-65
2021/01/19 04:51:48;;;;;;;11.45;6.83;;;;;;;2.28;76.43;100234.36;2079093;84;27819;-66
2021/01/19 04:55:15;;;;;;;13.65;7.20;;;;;;;2.30;76.41;100234.36;2067046;86;28839;-65
2021/01/19 04:58:22;;;;;;;10.58;6.80;;;;;;;2.27;76.46;100228.22;2091022;84;31231;-65
2021/01/19 05:01:57;;;;;;;13.78;7.95;;;;;;;2.26;76.39;100232.19;2101205;84;34062;-65
2021/01/19 05:05:25;;;;;;;15.53;7.63;;;;;;;2.26;76.47;100238.80;2100798;82;29165;-65
2021/01/19 05:08:42;;;;;;;9.88;6.95;;;;;;;2.23;76.48;100235.77;2075761;83;27673;-65
2021/01/19 05:11:52;;;;;;;10.53;6.58;;;;;;;2.22;76.51;100241.95;2066880;84;29269;-65
2021/01/19 05:14:55;;;;;;;13.90;8.05;;;;;;;2.21;76.54;100241.98;2070125;84;31152;-64
2021/01/19 05:17:57;;;;;;;12.98;7.62;;;;;;;2.23;76.63;100235.77;2082032;84;33169;-66
2021/01/19 05:21:01;;;;;;;10.88;7.67;;;;;;;2.23;76.65;100229.16;2085197;84;29163;-66
2021/01/19 05:24:04;;;;;;;11.10;8.33;;;;;;;2.27;76.70;100229.97;2111510;84;28204;-66
2021/01/19 05:27:07;;;;;;;12.15;7.55;;;;;;;2.30;76.67;100227.28;2096305;84;28827;-66
2021/01/19 05:30:11;;;;;;;14.05;8.75;;;;;;;2.32;76.69;100224.17;2077762;84;32615;-65
2021/01/19 05:33:16;;;;;;;12.33;8.80;;;;;;;2.34;76.71;100230.73;2077696;84;33155;-65
2021/01/19 05:36:19;;;;;;;17.62;9.38;;;;;;;2.32;76.66;100219.34;2087737;84;29184;-65
2021/01/19 05:39:23;;;;;;;14.65;8.73;;;;;;;2.32;76.69;100228.59;2101862;84;27744;-65
2021/01/19 05:42:25;;;;;;;13.65;9.38;;;;;;;2.33;76.67;100225.91;2100779;84;29260;-65
2021/01/19 05:45:27;;;;;;;12.43;7.85;;;;;;;2.33;76.72;100226.34;2101770;84;31404;-65
2021/01/19 05:48:38;;;;;;;15.98;8.65;;;;;;;2.32;76.68;100223.31;2074830;84;33092;-65
2021/01/19 05:51:43;;;;;;;14.10;8.53;;;;;;;2.34;76.71;100224.13;2090545;84;30038;-65
2021/01/19 05:54:48;;;;;;;13.40;8.53;;;;;;;2.36;76.76;100218.38;2101215;84;27674;-64
2021/01/19 05:57:52;;;;;;;15.45;10.03;;;;;;;2.41;76.80;100220.03;2075667;84;28815;-64
2021/01/19 06:00:55;;;;;;;16.65;10.00;;;;;;;2.46;76.80;100216.44;2067405;84;31145;-64
2021/01/19 06:04:01;;;;;;;18.15;10.68;;;;;;;2.50;76.76;100211.53;2079666;84;33136;-64
2021/01/19 06:07:04;;;;;;;19.87;11.05;;;;;;;2.53;76.68;100219.42;2086658;84;29592;-63
2021/01/19 06:10:17;;;;;;;17.92;11.12;;;;;;;2.56;76.62;100220.22;2073830;82;27683;-63
2021/01/19 06:13:20;;;;;;;16.75;10.85;;;;;;;2.57;76.54;100221.08;2098478;84;28622;-63
2021/01/19 06:16:44;;;;;;;23.50;9.53;;;;;;;2.56;76.45;100218.05;2094681;84;31364;-63
2021/01/19 06:19:47;;;;;;;12.53;8.13;;;;;;;2.54;76.43;100219.38;1947446;90;34470;-63
2021/01/19 06:22:50;;;;;;;13.13;8.53;;;;;;;2.54;76.42;100219.38;1938821;91;29172;-63
2021/01/19 06:25:55;;;;;;;16.45;9.15;;;;;;;2.53;76.39;100220.73;1938856;91;27649;-63
2021/01/19 06:28:57;;;;;;;13.33;7.77;;;;;;;2.56;76.41;100220.22;1911045;91;28764;-64
2021/01/19 06:32:02;;;;;;;23.90;14.13;;;;;;;2.59;76.46;100217.96;1938675;91;31187;-63
2021/01/19 06:35:18;;;;;;;20.15;14.00;;;;;;;2.61;76.46;100219.27;1940261;90;33138;-63
2021/01/19 06:38:22;;;;;;;38.30;23.50;;;;;;;2.62;76.39;100213.95;1956129;90;29250;-63
2021/01/19 06:41:24;;;;;;;42.27;24.52;;;;;;;2.64;76.35;100215.26;1943066;90;27661;-63
2021/01/19 06:44:30;;;;;;;30.90;19.95;;;;;;;2.64;76.33;100213.94;1957235;90;28915;-63
2021/01/19 06:47:38;;;;;;;28.83;17.57;;;;;;;2.64;76.33;100222.73;1913776;92;31255;-63
2021/01/19 06:50:55;;;;;;;19.53;12.07;;;;;;;2.69;76.28;100210.73;2217073;79;27633;-63
2021/01/19 06:54:25;;;;;;;19.20;10.10;;;;;;;2.62;76.25;100214.41;2189402;80;27772;-62
2021/01/19 06:58:06;;;;;;;16.02;9.55;;;;;;;2.63;76.25;100208.22;2080381;84;28681;-63
2021/01/19 07:01:14;;;;;;;15.90;9.88;;;;;;;2.68;76.28;100212.52;2088487;83;31140;-64
2021/01/19 07:04:24;;;;;;;20.48;10.05;;;;;;;2.73;76.35;100212.43;2086239;83;33841;-64
2021/01/19 07:07:41;;;;;;;17.23;10.53;;;;;;;2.77;76.31;100208.83;2081641;83;28540;-64
2021/01/19 07:11:17;;;;;;;15.53;10.58;;;;;;;2.80;76.19;100198.20;2078499;85;27683;-64
2021/01/19 07:14:40;;;;;;;13.53;9.85;;;;;;;2.81;76.17;100195.09;2081038;85;28831;-64
2021/01/19 07:18:23;;;;;;;17.30;10.85;;;;;;;2.82;76.10;100195.05;2076766;83;32094;-64
2021/01/19 07:21:37;;;;;;;25.27;13.88;;;;;;;2.79;76.00;100189.84;2080524;85;34013;-64
2021/01/19 07:24:50;;;;;;;32.40;18.93;;;;;;;2.84;76.03;100189.74;2295258;77;27716;-63
2021/01/19 07:27:53;;;;;;;35.20;19.52;;;;;;;2.79;76.00;100192.92;2250118;77;27712;-63
2021/01/19 07:30:56;;;;;;;41.28;18.45;;;;;;;2.79;76.05;100190.27;2147849;80;28723;-65
2021/01/19 07:33:59;;;;;;;39.18;19.07;;;;;;;2.81;76.08;100199.05;2123609;81;32035;-62
2021/01/19 07:37:01;;;;;;;29.30;16.32;;;;;;;2.82;76.02;100195.51;2207896;80;33156;-65
2021/01/19 07:40:18;;;;;;;24.98;14.20;;;;;;;2.86;76.07;100202.50;2217006;80;28535;-62
2021/01/19 07:43:21;;;;;;;30.08;16.02;;;;;;;2.91;76.11;100203.72;2162169;81;27655;-64
2021/01/19 07:46:28;;;;;;;27.00;15.80;;;;;;;2.96;76.11;100201.40;2179117;81;28809;-64
2021/01/19 07:49:32;;;;;;;27.30;15.18;;;;;;;3.02;76.22;100193.78;2140271;81;30954;-63
2021/01/19 07:52:41;;;;;;;20.45;12.95;;;;;;;3.06;76.11;100198.12;2199691;80;33519;-63
2021/01/19 07:55:46;;;;;;;22.20;13.45;;;;;;;3.09;76.09;100194.09;2139729;81;28912;-63
2021/01/19 07:58:48;;;;;;;19.07;12.87;;;;;;;3.12;76.08;100198.00;2217843;80;27656;-64
2021/01/19 08:01:57;;;;;;;24.63;12.23;;;;;;;3.15;76.02;100197.06;2170889;81;28826;-63
2021/01/19 08:05:02;;;;;;;18.50;12.68;;;;;;;3.19;76.08;100206.22;2211192;80;31151;-64
2021/01/19 08:08:17;;;;;;;17.35;11.15;;;;;;;3.22;76.09;100198.69;2216491;80;34272;-64
2021/01/19 08:11:21;;;;;;;19.10;10.45;;;;;;;3.27;76.13;100192.82;2177016;81;28869;-65
2021/01/19 08:14:28;;;;;;;16.17;10.48;;;;;;;3.36;75.96;100196.20;2188924;80;27572;-64
2021/01/19 08:17:38;;;;;;;17.52;11.20;;;;;;;3.43;75.98;100193.81;2181678;80;30249;-64
2021/01/19 08:20:41;;;;;;;21.42;12.28;;;;;;;3.49;75.94;100191.90;2109662;83;31132;-65
2021/01/19 08:23:43;;;;;;;19.82;12.25;;;;;;;3.58;75.93;100189.50;2165995;80;33309;-65
2021/01/19 08:26:46;;;;;;;23.83;12.25;;;;;;;3.69;75.87;100186.61;2178026;81;29792;-65
2021/01/19 08:29:50;;;;;;;18.05;11.53;;;;;;;3.76;75.59;100184.25;2185957;80;27798;-65
2021/01/19 08:32:55;;;;;;;20.55;12.13;;;;;;;3.83;75.69;100174.81;2180886;80;28790;-64
2021/01/19 08:35:59;;;;;;;30.82;15.70;;;;;;;3.90;75.67;100179.06;2141142;81;31119;-64
2021/01/19 08:39:05;;;;;;;51.90;23.38;;;;;;;3.97;75.68;100183.33;2159541;81;34041;-64
2021/01/19 08:42:10;;;;;;;45.58;22.35;;;;;;;4.05;75.52;100176.51;2200353;80;28858;-64
2021/01/19 08:45:33;;;;;;;48.80;23.77;;;;;;;4.10;75.28;100174.59;2212570;80;27704;-64
2021/01/19 08:48:35;;;;;;;39.95;21.77;;;;;;;4.13;75.26;100174.52;2153671;81;28833;-64
2021/01/19 08:51:40;;;;;;;38.30;19.57;;;;;;;4.18;75.34;100167.33;2178564;80;31238;-65
2021/01/19 08:54:42;;;;;;;33.23;19.32;;;;;;;4.27;75.29;100168.88;2139265;81;33118;-65
2021/01/19 08:57:49;;;;;;;35.60;20.55;;;;;;;4.35;74.87;100169.53;2220359;80;28852;-65
2021/01/19 09:00:51;;;;;;;57.93;28.12;;;;;;;4.43;75.01;100168.48;2220778;78;27685;-65
2021/01/19 09:04:00;;;;;;;124.47;70.20;;;;;;;4.53;75.00;100164.66;2179611;80;28829;-64
2021/01/19 09:07:08;;;;;;;76.40;39.73;;;;;;;4.63;74.67;100158.64;2137774;83;31383;-65
2021/01/19 09:10:20;;;;;;;47.17;26.05;;;;;;;4.71;74.72;100157.52;2209530;80;33116;-65
2021/01/19 09:13:23;;;;;;;75.75;49.00;;;;;;;4.80;74.39;100154.22;2165838;81;28918;-64
2021/01/19 09:16:25;;;;;;;65.30;37.60;;;;;;;4.85;74.38;100151.84;2193294;78;27667;-63
2021/01/19 09:19:28;;;;;;;67.90;41.48;;;;;;;4.90;74.05;100146.83;2151102;80;28830;-63
2021/01/19 09:22:30;;;;;;;65.75;35.08;;;;;;;4.96;74.12;100132.06;2193350;80;31214;-61
2021/01/19 09:25:32;;;;;;;51.70;30.00;;;;;;;5.00;73.93;100127.94;2201354;80;33095;-62
2021/01/19 09:28:36;;;;;;;51.98;27.15;;;;;;;5.07;73.86;100126.45;2216449;80;28873;-63
2021/01/19 09:31:39;;;;;;;60.20;30.97;;;;;;;5.10;73.63;100124.56;2180834;80;27710;-62
2021/01/19 09:34:43;;;;;;;85.35;47.23;;;;;;;5.15;73.53;100118.66;2191011;79;28910;-61
2021/01/19 09:37:48;;;;;;;49.23;27.37;;;;;;;5.21;73.45;100119.41;2186230;80;31134;-62
2021/01/19 09:40:52;;;;;;;51.95;28.30;;;;;;;5.24;73.05;100118.84;2146718;81;33952;-64
2021/01/19 09:43:56;;;;;;;51.58;29.20;;;;;;;5.27;73.11;100111.23;2161129;81;28857;-63
2021/01/19 09:47:05;;;;;;;43.73;24.35;;;;;;;5.32;73.05;100114.63;2212697;80;27638;-65
2021/01/19 09:50:10;;;;;;;39.65;24.50;;;;;;;5.38;73.13;100106.91;2150883;80;29851;-63
2021/01/19 09:53:24;;;;;;;54.83;27.73;;;;;;;5.44;72.92;100102.28;2173640;81;31199;-64
2021/01/19 09:56:27;;;;;;;43.48;23.77;;;;;;;5.50;72.72;100095.89;2169378;81;33160;-63
2021/01/19 09:59:31;;;;;;;52.62;29.85;;;;;;;5.54;72.33;100088.72;2192668;80;28857;-65
2021/01/19 10:02:38;;;;;;;55.63;30.85;;;;;;;5.53;72.27;100090.48;2184136;80;27665;-64
2021/01/19 10:05:40;;;;;;;41.73;21.60;;;;;;;5.58;72.34;100087.67;2212051;80;29736;-63
2021/01/19 10:08:45;;;;;;;37.80;21.80;;;;;;;5.61;71.90;100081.82;2198373;80;32035;-64
2021/01/19 10:11:46;;;;;;;33.98;20.32;;;;;;;5.63;71.86;100087.08;2222651;80;35768;-66
2021/01/19 10:14:50;;;;;;;31.90;19.37;;;;;;;5.62;71.58;100080.02;2131790;83;28865;-64
2021/01/19 10:17:58;;;;;;;102.65;44.45;;;;;;;5.62;71.58;100074.70;2185865;80;27615;-63
2021/01/19 10:21:00;;;;;;;104.05;44.55;;;;;;;5.63;71.58;100069.80;2152908;81;28928;-63
2021/01/19 10:24:03;;;;;;;39.25;19.70;;;;;;;5.62;71.49;100055.66;2207865;80;31187;-63
2021/01/19 10:27:10;;;;;;;43.92;22.87;;;;;;;5.63;71.15;100058.70;2202086;80;33128;-64
2021/01/19 10:30:13;;;;;;;53.85;27.95;;;;;;;5.62;71.38;100048.13;2234917;79;28865;-65
2021/01/19 10:33:28;;;;;;;35.80;20.68;;;;;;;5.64;71.29;100047.63;2177442;80;27705;-65
2021/01/19 10:36:33;;;;;;;25.08;17.00;;;;;;;5.62;71.09;100038.38;2197887;80;28820;-67
2021/01/19 10:39:37;;;;;;;;;;;;;;;5.63;70.80;100033.92;2201015;80;31114;-63
2021/01/19 10:42:40;;;;;;;26.93;14.70;;;;;;;5.60;70.69;100040.22;2154601;81;34232;-64
2021/01/19 10:45:43;;;;;;;26.33;15.58;;;;;;;5.60;70.64;100028.70;2209777;80;29361;-64
2021/01/19 10:48:46;;;;;;;28.17;17.48;;;;;;;5.60;70.62;100022.06;2185083;81;27681;-64
2021/01/19 10:51:52;;;;;;;25.90;15.80;;;;;;;5.61;70.52;100018.05;2167861;81;29787;-64
2021/01/19 10:54:55;;;;;;;32.55;17.17;;;;;;;5.62;70.70;100010.48;2200195;80;32164;-66
2021/01/19 10:58:03;;;;;;;32.35;18.57;;;;;;;5.72;70.60;100004.36;2184386;81;33220;-65
2021/01/19 11:01:06;;;;;;;37.30;20.95;;;;;;;5.77;70.40;100005.56;2212965;80;28955;-65
2021/01/19 11:04:09;;;;;;;39.35;23.32;;;;;;;5.85;70.13;99999.98;2173101;80;27715;-65
2021/01/19 11:07:11;;;;;;;32.17;17.65;;;;;;;5.89;70.02;99997.59;2192887;79;29774;-65
2021/01/19 11:10:16;;;;;;;53.52;28.55;;;;;;;5.95;69.83;100001.85;2198543;79;31178;-65
2021/01/19 11:13:19;;;;;;;46.37;26.45;;;;;;;6.00;69.89;100002.13;2205339;79;33121;-63
2021/01/19 11:16:28;;;;;;;39.80;23.85;;;;;;;6.04;69.71;99990.91;2177884;80;28865;-62
2021/01/19 11:19:30;;;;;;;25.95;16.90;;;;;;;6.06;69.45;99991.72;2177282;81;27737;-64
2021/01/19 11:22:33;;;;;;;43.45;31.20;;;;;;;6.04;69.33;99980.27;2166470;80;30166;-63
2021/01/19 11:25:36;;;;;;;31.48;16.85;;;;;;;6.06;69.29;99981.94;2199262;80;31146;-64
2021/01/19 11:28:38;;;;;;;24.25;15.23;;;;;;;6.03;68.63;99975.88;2197828;78;33974;-62
2021/01/19 11:31:41;;;;;;;34.10;21.42;;;;;;;5.99;68.67;99967.56;2148712;81;28859;-62
2021/01/19 11:34:43;;;;;;;29.30;17.57;;;;;;;5.96;68.72;99950.41;2197950;78;27695;-63
2021/01/19 11:37:45;;;;;;;29.48;18.35;;;;;;;5.99;68.92;99947.17;2152469;81;28230;-61
2021/01/19 11:40:50;;;;;;;33.73;21.33;;;;;;;6.00;68.71;99938.75;2190648;80;31593;-63
2021/01/19 11:43:55;;;;;;;32.15;21.60;;;;;;;6.03;68.90;99933.33;2185313;78;33113;-61
2021/01/19 11:46:57;;;;;;;50.52;29.82;;;;;;;6.08;68.67;99928.72;2152786;80;28905;-69
2021/01/19 11:49:59;;;;;;;67.17;41.95;;;;;;;6.07;68.43;99921.19;2207121;80;28272;-62
2021/01/19 11:53:02;;;;;;;38.15;21.20;;;;;;;6.07;68.40;99917.67;2157529;81;28931;-63
2021/01/19 11:56:05;;;;;;;76.85;33.83;;;;;;;6.07;68.39;99913.69;2181387;78;31156;-70
2021/01/19 11:59:09;;;;;;;97.55;42.13;;;;;;;6.05;68.01;99905.74;2179387;79;32940;-68
2021/01/19 12:02:14;;;;;;;;;;;;;;;5.99;67.98;99896.66;2179218;81;28794;-69
2021/01/19 12:05:16;;;;;;;86.12;43.13;;;;;;;5.94;67.86;99889.30;2175209;80;28138;-67
2021/01/19 12:08:19;;;;;;;87.95;37.88;;;;;;;5.84;67.87;99879.95;2151266;80;29788;-67
2021/01/19 12:11:21;;;;;;;57.35;26.70;;;;;;;5.77;67.86;99872.19;2177447;81;32138;-68
2021/01/19 12:14:24;;;;;;;54.27;25.50;;;;;;;5.70;67.54;99862.72;2196424;80;34096;-67
2021/01/19 12:17:26;;;;;;;57.70;26.05;;;;;;;5.61;67.35;99858.61;2138264;81;29864;-70
2021/01/19 12:20:29;;;;;;;67.00;30.55;;;;;;;5.54;67.57;99857.08;2178142;81;27649;-66
2021/01/19 12:23:32;;;;;;;71.85;32.80;;;;;;;5.52;67.80;99853.61;2138174;83;29770;-73
2021/01/19 12:26:34;;;;;;;57.00;28.20;;;;;;;5.55;67.78;99842.88;2180282;81;31131;-74
2021/01/19 12:29:37;;;;;;;39.65;21.17;;;;;;;5.60;68.03;99848.02;2179008;80;34022;-75
2021/01/19 12:32:39;;;;;;;61.15;33.18;;;;;;;5.60;67.70;99829.41;2178617;80;29172;-69
2021/01/19 12:35:43;;;;;;;64.03;31.05;;;;;;;5.61;67.89;99828.05;2178443;81;27621;-76
2021/01/19 12:38:46;;;;;;;61.37;31.60;;;;;;;5.60;67.59;99818.34;2178677;81;28892;-74
2021/01/19 12:41:50;;;;;;;49.55;25.02;;;;;;;5.59;67.49;99812.62;2178870;81;32110;-72
2021/01/19 12:44:52;;;;;;;29.15;18.23;;;;;;;5.54;67.40;99809.73;2178962;81;33046;-75
2021/01/19 12:47:56;;;;;;;47.98;27.15;;;;;;;5.52;67.34;99810.24;2199642;80;29449;-76
2021/01/19 12:50:58;;;;;;;47.17;27.07;;;;;;;5.45;67.24;99801.16;2217331;80;27673;-74
2021/01/19 12:54:02;;;;;;;38.67;21.27;;;;;;;5.39;67.35;99793.88;2217443;80;28827;-75
2021/01/19 12:57:05;;;;;;;51.65;26.50;;;;;;;5.33;67.19;99789.66;2217712;80;32040;-75
2021/01/19 13:00:09;;;;;;;51.55;25.62;;;;;;;5.24;67.28;99788.20;2217546;80;34041;-77
2021/01/19 13:03:13;;;;;;;40.08;25.55;;;;;;;5.17;67.24;99781.36;2217742;80;29218;-73
2021/01/19 13:06:16;;;;;;;31.35;20.62;;;;;;;5.11;67.30;99770.51;2217819;80;27741;-76
2021/01/19 13:09:19;;;;;;;84.22;33.48;;;;;;;5.01;67.45;99771.29;2205471;80;29743;-66
2021/01/19 13:12:22;;;;;;;102.35;44.00;;;;;;;4.98;67.47;99772.72;2177844;81;31109;-77
2021/01/19 13:15:25;;;;;;;89.35;44.60;;;;;;;4.95;67.57;99763.56;2178603;80;33109;-71
2021/01/19 13:18:27;;;;;;;77.40;38.75;;;;;;;4.91;67.34;99767.23;2178280;81;30146;-70
2021/01/19 13:21:30;;;;;;;58.83;32.23;;;;;;;4.85;67.47;99763.45;2179114;81;27770;-77
2021/01/19 13:24:33;;;;;;;49.95;28.57;;;;;;;4.81;67.61;99766.69;2180287;81;28251;-77
2021/01/19 13:27:36;;;;;;;29.52;19.82;;;;;;;4.77;67.54;99753.59;2188176;81;32120;-76
2021/01/19 13:30:39;;;;;;;50.85;25.12;;;;;;;4.69;67.46;99752.05;2187128;80;33134;-76
2021/01/19 13:33:41;;;;;;;35.15;17.52;;;;;;;4.62;67.32;99723.12;2187748;81;29168;-70
2021/01/19 13:36:44;;;;;;;23.57;12.85;;;;;;;4.53;67.49;99703.09;2188731;81;27795;-76
2021/01/19 13:39:48;;;;;;;119.55;62.17;;;;;;;4.49;67.58;99692.17;2188540;80;29762;-72
2021/01/19 13:42:52;;;;;;;34.13;22.02;;;;;;;4.43;67.50;99689.27;2188454;81;31785;-73
2021/01/19 13:45:56;;;;;;;24.67;15.68;;;;;;;4.43;67.59;99696.37;2188803;81;33119;-69
2021/01/19 13:48:58;;;;;;;33.20;19.27;;;;;;;4.44;67.66;99702.09;2188679;80;30033;-68
2021/01/19 13:52:01;;;;;;;27.22;18.15;;;;;;;4.46;67.83;99710.39;2188851;81;28133;-73
2021/01/19 13:55:05;;;;;;;30.40;17.98;;;;;;;4.50;67.92;99704.52;2160830;81;28836;-61
2021/01/19 13:58:08;;;;;;;31.23;19.45;;;;;;;4.53;67.96;99690.71;2151097;82;30532;-61
2021/01/19 14:01:11;;;;;;;34.15;18.40;;;;;;;4.55;67.89;99689.32;2150745;82;34040;-61
2021/01/19 14:04:14;;;;;;;30.80;18.50;;;;;;;4.54;67.75;99687.14;2150891;82;29580;-61
2021/01/19 14:07:17;;;;;;;34.35;16.67;;;;;;;4.52;67.77;99680.14;2152707;80;27685;-61
2021/01/19 14:10:20;;;;;;;41.10;25.40;;;;;;;4.49;67.69;99672.28;2156452;80;28804;-62
2021/01/19 14:13:22;;;;;;;25.20;14.73;;;;;;;4.43;67.56;99675.16;2175252;81;31213;-66
2021/01/19 14:16:26;;;;;;;45.92;28.85;;;;;;;4.35;67.65;99667.00;2187878;81;33386;-61
2021/01/19 14:19:30;;;;;;;25.17;14.30;;;;;;;4.32;67.67;99666.24;2188838;81;29170;-61